createdAt,value
2019-02-19T00:02:11.638Z,7.40
2019-02-19T00:04:40.438Z,7.40
2019-02-19T00:07:09.250Z,7.40
2019-02-19T00:09:38.158Z,7.40
2019-02-19T00:12:07.051Z,7.40
2019-02-19T00:14:35.893Z,7.40
2019-02-19T00:17:04.692Z,7.40
2019-02-19T00:19:33.615Z,7.40
2019-02-19T00:22:02.428Z,7.40
2019-02-19T00:24:31.422Z,7.40
2019-02-19T00:27:00.321Z,7.40
2019-02-19T00:29:29.164Z,7.40
2019-02-19T00:31:58.097Z,7.40
2019-02-19T00:34:26.926Z,7.40
2019-02-19T00:36:55.762Z,7.40
2019-02-19T00:39:24.653Z,7.40
2019-02-19T00:42:35.451Z,7.40
2019-02-19T00:45:05.261Z,7.40
2019-02-19T00:47:34.168Z,7.30
2019-02-19T00:50:03.232Z,7.30
2019-02-19T00:52:32.126Z,7.30
2019-02-19T00:55:01.030Z,7.30
2019-02-19T00:57:29.902Z,7.30
2019-02-19T00:59:58.809Z,7.30
2019-02-19T01:02:27.681Z,7.20
2019-02-19T01:04:57.049Z,7.30
2019-02-19T01:07:25.938Z,7.20
2019-02-19T01:09:54.838Z,7.20
2019-02-19T01:12:24.047Z,7.20
2019-02-19T01:14:53.061Z,7.20
2019-02-19T01:17:22.053Z,7.20
2019-02-19T01:19:50.929Z,7.20
2019-02-19T01:22:19.853Z,7.10
2019-02-19T01:24:48.701Z,7.10
2019-02-19T01:27:17.528Z,7.10
2019-02-19T01:29:46.342Z,7.10
2019-02-19T01:32:15.246Z,7.10
2019-02-19T01:34:44.114Z,7.10
2019-02-19T01:37:13.036Z,7.10
2019-02-19T01:39:41.829Z,7.10
2019-02-19T01:42:10.654Z,7.10
2019-02-19T01:44:39.562Z,7.10
2019-02-19T01:47:08.545Z,7.10
2019-02-19T01:49:37.421Z,7.10
2019-02-19T01:52:06.269Z,7.00
2019-02-19T01:54:35.073Z,7.00
2019-02-19T01:57:04.093Z,7.00
2019-02-19T01:59:33.011Z,7.00
2019-02-19T02:02:01.898Z,7.00
2019-02-19T02:04:30.742Z,7.00
2019-02-19T02:06:59.838Z,6.90
2019-02-19T02:09:28.758Z,7.00
2019-02-19T02:11:57.573Z,6.90
2019-02-19T02:14:26.401Z,6.90
2019-02-19T02:16:55.299Z,6.90
2019-02-19T02:19:24.216Z,6.90
2019-02-19T02:21:53.054Z,6.90
2019-02-19T02:24:21.932Z,6.90
2019-02-19T02:26:50.867Z,6.90
2019-02-19T02:29:19.682Z,6.90
2019-02-19T02:31:48.581Z,6.90
2019-02-19T02:34:17.415Z,6.90
2019-02-19T02:36:46.441Z,6.80
2019-02-19T02:39:15.275Z,6.80
2019-02-19T02:41:44.154Z,6.80
2019-02-19T02:44:13.097Z,6.80
2019-02-19T02:46:41.931Z,6.80
2019-02-19T02:49:10.768Z,6.80
2019-02-19T02:51:39.594Z,6.80
2019-02-19T02:54:08.557Z,6.80
2019-02-19T02:56:37.405Z,6.80
2019-02-19T02:59:06.285Z,6.80
2019-02-19T03:01:35.122Z,6.80
2019-02-19T03:04:04.102Z,6.70
2019-02-19T03:06:43.741Z,6.70
2019-02-19T03:09:12.591Z,6.70
2019-02-19T03:11:41.389Z,6.70
2019-02-19T03:14:10.307Z,6.70
2019-02-19T03:16:39.166Z,6.60
2019-02-19T03:19:08.161Z,6.60
2019-02-19T03:21:37.008Z,6.60
2019-02-19T03:24:06.110Z,6.60
2019-02-19T03:26:35.082Z,6.50
2019-02-19T03:29:03.987Z,6.50
2019-02-19T03:31:32.876Z,6.50
2019-02-19T03:34:01.777Z,6.50
2019-02-19T03:36:30.663Z,6.40
2019-02-19T03:38:59.499Z,6.40
2019-02-19T03:41:28.409Z,6.40
2019-02-19T03:43:57.224Z,6.40
2019-02-19T03:46:26.142Z,6.30
2019-02-19T03:48:55.039Z,6.30
2019-02-19T03:51:23.896Z,6.30
2019-02-19T03:53:52.773Z,6.30
2019-02-19T03:56:21.665Z,6.20
2019-02-19T03:58:50.571Z,6.20
2019-02-19T04:01:19.541Z,6.20
2019-02-19T04:03:48.505Z,6.20
2019-02-19T04:06:17.391Z,6.10
2019-02-19T04:08:46.318Z,6.10
2019-02-19T04:11:15.226Z,6.10
2019-02-19T04:13:44.241Z,6.10
2019-02-19T04:16:21.077Z,6.00
2019-02-19T04:18:43.644Z,6.00
2019-02-19T04:21:12.558Z,6.00
2019-02-19T04:23:41.389Z,6.00
2019-02-19T04:26:10.382Z,6.00
2019-02-19T04:28:39.345Z,5.90
2019-02-19T04:31:08.153Z,5.90
2019-02-19T04:33:37.052Z,5.90
2019-02-19T04:36:05.905Z,5.90
2019-02-19T04:38:34.770Z,5.90
2019-02-19T04:41:03.605Z,5.80
2019-02-19T04:43:32.462Z,5.80
2019-02-19T04:46:01.348Z,5.80
2019-02-19T04:48:30.194Z,5.80
2019-02-19T04:50:59.105Z,5.80
2019-02-19T04:53:27.928Z,5.70
2019-02-19T04:55:56.890Z,5.70
2019-02-19T04:58:25.708Z,5.70
2019-02-19T05:00:54.678Z,5.70
2019-02-19T05:03:23.713Z,5.70
2019-02-19T05:05:52.621Z,5.70
2019-02-19T05:08:21.537Z,5.70
2019-02-19T05:10:50.442Z,5.60
2019-02-19T05:13:19.318Z,5.60
2019-02-19T05:15:48.126Z,5.60
2019-02-19T05:18:17.132Z,5.60
2019-02-19T05:20:45.971Z,5.60
2019-02-19T05:23:14.836Z,5.60
2019-02-19T05:25:43.664Z,5.60
2019-02-19T05:28:12.545Z,5.60
2019-02-19T05:30:43.051Z,5.60
2019-02-19T05:33:12.134Z,5.50
2019-02-19T05:35:40.960Z,5.50
2019-02-19T05:38:09.782Z,5.50
2019-02-19T05:40:38.609Z,5.50
2019-02-19T05:43:07.437Z,5.50
2019-02-19T05:45:36.403Z,5.50
2019-02-19T05:48:05.442Z,5.50
2019-02-19T05:50:34.358Z,5.50
2019-02-19T05:53:03.334Z,5.50
2019-02-19T05:55:32.244Z,5.40
2019-02-19T05:58:01.129Z,5.40
2019-02-19T06:00:29.979Z,5.40
2019-02-19T06:02:58.866Z,5.40
2019-02-19T06:05:27.707Z,5.40
2019-02-19T06:07:56.564Z,5.40
2019-02-19T06:10:25.452Z,5.30
2019-02-19T06:12:54.387Z,5.30
2019-02-19T06:15:23.414Z,5.30
2019-02-19T06:17:52.326Z,5.30
2019-02-19T06:20:21.217Z,5.30
2019-02-19T06:22:50.067Z,5.20
2019-02-19T06:25:18.959Z,5.20
2019-02-19T06:27:47.878Z,5.20
2019-02-19T06:30:17.076Z,5.20
2019-02-19T06:32:45.956Z,5.20
2019-02-19T06:35:14.879Z,5.20
2019-02-19T06:37:43.702Z,5.20
2019-02-19T06:40:23.525Z,5.20
2019-02-19T06:42:52.429Z,5.20
2019-02-19T06:45:21.336Z,5.20
2019-02-19T06:47:50.321Z,5.20
2019-02-19T06:50:19.329Z,5.20
2019-02-19T06:52:48.513Z,5.20
2019-02-19T06:55:17.550Z,5.20
2019-02-19T06:57:46.399Z,5.20
2019-02-19T07:00:15.308Z,5.20
2019-02-19T07:03:09.459Z,5.20
2019-02-19T07:05:38.306Z,5.20
2019-02-19T07:08:07.362Z,5.20
2019-02-19T07:10:36.241Z,5.20
2019-02-19T07:13:05.153Z,5.20
2019-02-19T07:15:34.013Z,5.20
2019-02-19T07:18:02.825Z,5.20
2019-02-19T07:20:31.794Z,5.20
2019-02-19T07:23:00.854Z,5.20
2019-02-19T07:25:29.909Z,5.20
2019-02-19T07:27:58.734Z,5.20
2019-02-19T07:30:27.702Z,5.20
2019-02-19T07:32:56.625Z,5.30
2019-02-19T07:35:25.577Z,5.30
2019-02-19T07:37:54.433Z,5.30
2019-02-19T07:40:23.376Z,5.30
2019-02-19T07:42:52.197Z,5.30
2019-02-19T07:45:21.160Z,5.30
2019-02-19T07:47:49.982Z,5.30
2019-02-19T07:50:18.849Z,5.40
2019-02-19T07:52:47.711Z,5.40
2019-02-19T07:55:16.640Z,5.40
2019-02-19T07:57:45.494Z,5.40
2019-02-19T08:00:14.557Z,5.40
2019-02-19T08:02:43.502Z,5.40
2019-02-19T08:05:12.710Z,5.40
2019-02-19T08:07:41.615Z,5.40
2019-02-19T08:10:10.730Z,5.40
2019-02-19T08:12:39.751Z,5.50
2019-02-19T08:15:09.289Z,5.50
2019-02-19T08:17:38.179Z,5.50
2019-02-19T08:20:15.488Z,5.50
2019-02-19T08:22:38.248Z,5.60
2019-02-19T08:25:07.615Z,5.60
2019-02-19T08:27:36.599Z,5.60
2019-02-19T08:30:06.439Z,5.60
2019-02-19T08:32:35.356Z,5.60
2019-02-19T08:35:04.403Z,5.70
2019-02-19T08:37:33.623Z,5.70
2019-02-19T08:40:02.546Z,5.70
2019-02-19T08:42:31.779Z,5.70
2019-02-19T08:45:00.782Z,5.80
2019-02-19T08:47:29.799Z,5.90
2019-02-19T08:49:59.529Z,5.80
2019-02-19T08:52:28.350Z,5.90
2019-02-19T08:54:57.196Z,6.00
2019-02-19T08:57:26.001Z,6.00
2019-02-19T08:59:54.986Z,6.10
2019-02-19T09:02:23.945Z,6.10
2019-02-19T09:04:52.877Z,6.10
2019-02-19T09:07:21.899Z,6.10
2019-02-19T09:09:50.872Z,6.20
2019-02-19T09:12:19.760Z,6.20
2019-02-19T09:14:49.444Z,6.30
2019-02-19T09:17:18.674Z,6.30
2019-02-19T09:19:47.678Z,6.30
2019-02-19T09:22:16.590Z,6.40
2019-02-19T09:24:45.793Z,6.50
2019-02-19T09:27:14.791Z,6.50
2019-02-19T09:29:43.893Z,6.50
2019-02-19T09:32:12.759Z,6.60
2019-02-19T09:34:41.703Z,6.70
2019-02-19T09:37:10.720Z,6.70
2019-02-19T09:39:39.758Z,6.80
2019-02-19T09:42:08.665Z,6.80
2019-02-19T09:44:37.571Z,6.90
2019-02-19T09:47:06.568Z,6.90
2019-02-19T09:49:35.437Z,7.00
2019-02-19T09:52:04.555Z,7.00
2019-02-19T09:54:33.618Z,7.10
2019-02-19T09:57:02.750Z,7.20
2019-02-19T09:59:31.702Z,7.20
2019-02-19T10:02:00.707Z,7.30
2019-02-19T10:04:29.778Z,7.30
2019-02-19T10:06:58.760Z,7.30
2019-02-19T10:09:27.682Z,7.40
2019-02-19T10:11:56.619Z,7.40
2019-02-19T10:14:25.543Z,7.50
2019-02-19T10:16:54.446Z,7.50
2019-02-19T10:19:23.566Z,7.60
2019-02-19T10:21:52.653Z,7.60
2019-02-19T10:24:21.715Z,7.60
2019-02-19T10:26:50.690Z,7.70
2019-02-19T10:29:19.708Z,7.70
2019-02-19T10:31:48.610Z,7.80
2019-02-19T10:34:17.672Z,7.90
2019-02-19T10:36:46.806Z,7.90
2019-02-19T10:39:15.749Z,7.90
2019-02-19T10:41:44.776Z,8.00
2019-02-19T10:44:13.622Z,8.10
2019-02-19T10:46:42.573Z,8.10
2019-02-19T10:49:11.589Z,8.20
2019-02-19T10:51:40.672Z,8.20
2019-02-19T10:54:09.579Z,8.30
2019-02-19T10:56:38.560Z,8.40
2019-02-19T10:59:07.644Z,8.40
2019-02-19T11:01:37.662Z,8.50
2019-02-19T11:04:06.909Z,8.50
2019-02-19T11:06:35.755Z,8.60
2019-02-19T11:09:06.072Z,8.70
2019-02-19T11:11:35.004Z,8.70
2019-02-19T11:14:04.072Z,8.70
2019-02-19T11:16:33.162Z,8.80
2019-02-19T11:19:02.122Z,8.80
2019-02-19T11:21:31.093Z,8.90
2019-02-19T11:23:59.908Z,8.90
2019-02-19T11:26:28.841Z,9.00
2019-02-19T11:28:57.997Z,9.00
2019-02-19T11:31:26.946Z,9.00
2019-02-19T11:33:55.975Z,9.10
2019-02-19T11:36:24.992Z,9.10
2019-02-19T11:38:53.849Z,9.20
2019-02-19T11:41:22.721Z,9.20
2019-02-19T11:43:51.609Z,9.20
2019-02-19T11:46:20.566Z,9.20
2019-02-19T11:48:49.441Z,9.30
2019-02-19T11:51:18.637Z,9.30
2019-02-19T11:53:47.595Z,9.40
2019-02-19T11:56:16.502Z,9.40
2019-02-19T11:58:45.445Z,9.40
2019-02-19T12:01:14.571Z,9.40
2019-02-19T12:03:43.531Z,9.40
2019-02-19T12:06:12.499Z,9.50
2019-02-19T12:08:41.409Z,9.50
2019-02-19T12:11:10.350Z,9.50
2019-02-19T12:13:39.199Z,9.60
2019-02-19T12:16:08.364Z,9.60
2019-02-19T12:18:45.656Z,9.60
2019-02-19T12:21:08.142Z,9.60
2019-02-19T12:23:37.138Z,9.70
2019-02-19T12:26:06.378Z,9.70
2019-02-19T12:28:35.242Z,9.70
2019-02-19T12:31:04.059Z,9.80
2019-02-19T12:33:32.977Z,9.80
2019-02-19T12:36:01.846Z,9.80
2019-02-19T12:38:30.814Z,9.80
2019-02-19T12:40:59.859Z,9.90
2019-02-19T12:43:28.735Z,9.90
2019-02-19T12:45:57.735Z,9.90
2019-02-19T12:48:26.688Z,9.90
2019-02-19T12:50:55.627Z,9.90
2019-02-19T12:53:24.538Z,9.90
2019-02-19T12:55:53.473Z,10.00
2019-02-19T12:58:22.461Z,10.00
2019-02-19T13:00:51.367Z,10.00
2019-02-19T13:03:20.406Z,10.00
2019-02-19T13:05:49.311Z,10.00
2019-02-19T13:08:18.181Z,10.10
2019-02-19T13:10:47.090Z,10.10
2019-02-19T13:13:16.076Z,10.10
2019-02-19T13:15:44.892Z,10.10
2019-02-19T13:18:13.768Z,10.20
2019-02-19T13:20:42.770Z,10.20
2019-02-19T13:23:11.755Z,10.20
2019-02-19T13:25:40.621Z,10.20
2019-02-19T13:28:09.528Z,10.20
2019-02-19T13:30:38.354Z,10.20
2019-02-19T13:33:07.231Z,10.30
2019-02-19T13:35:36.237Z,10.30
2019-02-19T13:38:05.233Z,10.30
2019-02-19T13:40:34.141Z,10.30
2019-02-19T13:43:03.196Z,10.40
2019-02-19T13:45:32.365Z,10.40
2019-02-19T13:48:05.837Z,10.40
2019-02-19T13:50:31.966Z,10.40
2019-02-19T13:53:14.349Z,10.50
2019-02-19T13:55:46.666Z,10.50
2019-02-19T13:58:15.487Z,10.50
2019-02-19T14:00:45.725Z,10.50
2019-02-19T14:03:14.754Z,10.60
2019-02-19T14:05:43.770Z,10.60
2019-02-19T14:08:14.758Z,10.60
2019-02-19T14:10:43.358Z,10.60
2019-02-19T14:13:12.245Z,10.70
2019-02-19T14:16:03.005Z,10.70
2019-02-19T14:18:47.916Z,10.70
2019-02-19T14:21:34.814Z,10.70
2019-02-19T14:24:10.813Z,10.70
2019-02-19T14:27:05.112Z,10.70
2019-02-19T14:29:53.185Z,10.70
2019-02-19T14:32:40.169Z,10.70
2019-02-19T14:35:28.906Z,10.70
2019-02-19T14:38:16.021Z,10.70
2019-02-19T14:41:02.655Z,10.70
2019-02-19T14:43:50.384Z,10.70
2019-02-19T14:46:38.487Z,10.70
2019-02-19T14:49:36.840Z,10.70
2019-02-19T14:52:22.082Z,10.70
2019-02-19T14:55:02.650Z,10.60
2019-02-19T14:57:56.834Z,10.60
2019-02-19T15:00:44.374Z,10.60
2019-02-19T15:03:30.975Z,10.60
2019-02-19T15:06:31.334Z,10.60
2019-02-19T15:09:28.352Z,10.60
2019-02-19T15:12:20.267Z,10.50
2019-02-19T15:15:10.119Z,10.50
2019-02-19T15:17:55.417Z,10.40
2019-02-19T15:20:32.531Z,10.40
2019-02-19T15:23:35.874Z,10.30
2019-02-19T15:26:30.183Z,10.30
2019-02-19T15:29:11.961Z,10.30
2019-02-19T15:32:06.511Z,10.30
2019-02-19T15:35:03.562Z,10.30
2019-02-19T15:37:38.868Z,10.20
2019-02-19T15:40:33.491Z,10.20
2019-02-19T15:43:24.234Z,10.20
2019-02-19T15:46:25.694Z,10.20
2019-02-19T15:49:10.460Z,10.20
2019-02-19T15:51:58.381Z,10.10
2019-02-19T15:54:39.484Z,10.10
2019-02-19T15:57:16.249Z,10.10
2019-02-19T16:00:10.450Z,10.00
2019-02-19T16:02:45.899Z,9.90
2019-02-19T16:05:34.070Z,9.90
2019-02-19T16:08:40.160Z,9.90
2019-02-19T16:11:30.921Z,9.80
2019-02-19T16:14:17.494Z,9.70
2019-02-19T16:16:54.002Z,9.70
2019-02-19T16:19:41.994Z,9.60
2019-02-19T16:22:28.867Z,9.50
2019-02-19T16:25:15.540Z,9.50
2019-02-19T16:28:03.442Z,9.40
2019-02-19T16:30:54.389Z,9.30
2019-02-19T16:33:41.080Z,9.40
2019-02-19T16:36:35.245Z,9.30
2019-02-19T16:39:13.724Z,9.30
2019-02-19T16:41:55.569Z,9.20
2019-02-19T16:44:46.294Z,9.20
2019-02-19T16:47:37.089Z,9.20
2019-02-19T16:50:32.365Z,9.10
2019-02-19T16:53:24.117Z,9.00
2019-02-19T16:56:06.382Z,9.00
2019-02-19T16:58:53.006Z,8.90
2019-02-19T17:01:41.033Z,8.90
2019-02-19T17:04:19.929Z,8.90
2019-02-19T17:06:55.830Z,8.80
2019-02-19T17:09:52.671Z,8.80
2019-02-19T17:12:49.662Z,8.70
2019-02-19T17:15:36.464Z,8.70
2019-02-19T17:18:23.341Z,8.70
2019-02-19T17:20:58.831Z,8.60
2019-02-19T17:23:46.738Z,8.50
2019-02-19T17:26:20.797Z,8.50
2019-02-19T17:29:12.023Z,8.50
2019-02-19T17:31:53.405Z,8.40
2019-02-19T17:34:39.457Z,8.40
2019-02-19T17:37:31.184Z,8.30
2019-02-19T17:40:28.330Z,8.30
2019-02-19T17:43:11.743Z,8.30
2019-02-19T17:46:00.413Z,8.20
2019-02-19T17:48:47.272Z,8.20
2019-02-19T17:51:40.465Z,8.10
2019-02-19T17:54:37.776Z,8.10
2019-02-19T17:57:12.643Z,8.00
2019-02-19T17:59:56.837Z,8.00
2019-02-19T18:02:37.583Z,8.00
2019-02-19T18:05:19.266Z,7.90
2019-02-19T18:08:01.050Z,7.90
2019-02-19T18:10:42.963Z,7.90
2019-02-19T18:13:28.876Z,7.80
2019-02-19T18:16:15.458Z,7.80
2019-02-19T18:18:49.013Z,7.80
2019-02-19T18:21:18.983Z,7.70
2019-02-19T18:23:48.344Z,7.70
2019-02-19T18:26:17.386Z,7.70
2019-02-19T18:28:46.272Z,7.70
2019-02-19T18:31:15.208Z,7.70
2019-02-19T18:33:44.288Z,7.60
2019-02-19T18:36:13.555Z,7.60
2019-02-19T18:38:42.555Z,7.60
2019-02-19T18:41:11.378Z,7.60
2019-02-19T18:43:40.204Z,7.50
2019-02-19T18:46:09.244Z,7.50
2019-02-19T18:48:38.050Z,7.50
2019-02-19T18:51:07.026Z,7.50
2019-02-19T18:53:35.951Z,7.40
2019-02-19T18:56:04.834Z,7.40
2019-02-19T18:58:33.859Z,7.30
2019-02-19T19:01:02.944Z,7.30
2019-02-19T19:03:31.819Z,7.30
2019-02-19T19:06:00.852Z,7.30
2019-02-19T19:08:29.685Z,7.20
2019-02-19T19:10:58.673Z,7.20
2019-02-19T19:13:27.498Z,7.20
2019-02-19T19:15:56.347Z,7.20
2019-02-19T19:18:25.192Z,7.20
2019-02-19T19:20:54.219Z,7.10
2019-02-19T19:23:23.101Z,7.10
2019-02-19T19:25:52.025Z,7.10
2019-02-19T19:28:21.005Z,7.10
2019-02-19T19:30:49.805Z,7.10
2019-02-19T19:33:18.726Z,7.00
2019-02-19T19:35:47.670Z,7.10
2019-02-19T19:38:16.548Z,7.00
2019-02-19T19:40:45.513Z,7.00
2019-02-19T19:43:14.315Z,7.00
2019-02-19T19:45:43.202Z,7.00
2019-02-19T19:48:12.029Z,7.00
2019-02-19T19:50:40.837Z,7.00
2019-02-19T19:53:09.713Z,6.90
2019-02-19T19:55:38.611Z,6.90
2019-02-19T19:58:07.453Z,6.90
2019-02-19T20:00:36.402Z,6.90
2019-02-19T20:03:05.641Z,6.90
2019-02-19T20:05:34.602Z,6.90
2019-02-19T20:08:03.527Z,6.80
2019-02-19T20:10:32.583Z,6.90
2019-02-19T20:13:01.495Z,6.80
2019-02-19T20:15:30.403Z,6.80
2019-02-19T20:17:59.340Z,6.80
2019-02-19T20:20:28.156Z,6.80
2019-02-19T20:22:56.994Z,6.80
2019-02-19T20:25:25.888Z,6.80
2019-02-19T20:27:54.733Z,6.70
2019-02-19T20:30:23.775Z,6.80
2019-02-19T20:32:52.574Z,6.70
2019-02-19T20:35:21.495Z,6.70
2019-02-19T20:37:54.067Z,6.70
2019-02-19T20:40:21.007Z,6.70
2019-02-19T20:42:49.966Z,6.70
2019-02-19T20:45:18.865Z,6.70
2019-02-19T20:47:47.709Z,6.70
2019-02-19T20:50:16.603Z,6.60
2019-02-19T20:52:45.614Z,6.60
2019-02-19T20:55:14.517Z,6.60
2019-02-19T20:57:45.728Z,6.60
2019-02-19T21:00:15.639Z,6.60
2019-02-19T21:02:44.577Z,6.60
2019-02-19T21:05:13.747Z,6.60
2019-02-19T21:07:42.641Z,6.60
2019-02-19T21:10:13.779Z,6.50
2019-02-19T21:13:01.985Z,6.50
2019-02-19T21:15:30.883Z,6.50
2019-02-19T21:17:59.761Z,6.50
2019-02-19T21:20:28.603Z,6.50
2019-02-19T21:22:57.417Z,6.50
2019-02-19T21:25:31.009Z,6.40
2019-02-19T21:27:56.931Z,6.40
2019-02-19T21:30:25.924Z,6.40
2019-02-19T21:32:54.850Z,6.40
2019-02-19T21:35:23.918Z,6.40
2019-02-19T21:37:52.790Z,6.30
2019-02-19T21:40:21.892Z,6.30
2019-02-19T21:42:50.730Z,6.30
2019-02-19T21:45:19.718Z,6.30
2019-02-19T21:47:48.608Z,6.30
2019-02-19T21:50:17.470Z,6.30
2019-02-19T21:52:46.418Z,6.30
2019-02-19T21:55:15.314Z,6.20
2019-02-19T21:57:44.146Z,6.20
2019-02-19T22:00:15.345Z,6.20
2019-02-19T22:02:44.166Z,6.20
2019-02-19T22:05:13.180Z,6.20
2019-02-19T22:07:42.211Z,6.20
2019-02-19T22:10:11.448Z,6.10
2019-02-19T22:12:40.334Z,6.10
2019-02-19T22:15:09.490Z,6.10
2019-02-19T22:17:38.297Z,6.10
2019-02-19T22:20:10.922Z,6.00
2019-02-19T22:22:39.838Z,6.00
2019-02-19T22:25:08.862Z,6.00
2019-02-19T22:27:37.671Z,6.00
2019-02-19T22:30:07.066Z,6.00
2019-02-19T22:32:35.874Z,6.00
2019-02-19T22:35:05.073Z,6.00
2019-02-19T22:37:33.952Z,5.90
2019-02-19T22:40:02.998Z,5.90
2019-02-19T22:42:31.841Z,5.90
2019-02-19T22:45:00.665Z,5.90
2019-02-19T22:47:29.571Z,5.90
2019-02-19T22:49:58.390Z,5.90
2019-02-19T22:52:27.234Z,5.80
2019-02-19T22:55:10.753Z,5.80
2019-02-19T22:57:39.558Z,5.80
2019-02-19T23:00:18.697Z,5.80
2019-02-19T23:02:47.727Z,5.80
2019-02-19T23:05:16.754Z,5.80
2019-02-19T23:07:45.605Z,5.80
2019-02-19T23:10:14.500Z,5.80
2019-02-19T23:12:43.418Z,5.80
2019-02-19T23:15:12.390Z,5.80
2019-02-19T23:17:41.408Z,5.80
2019-02-19T23:20:10.532Z,5.80
2019-02-19T23:22:39.350Z,5.70
2019-02-19T23:25:08.342Z,5.70
2019-02-19T23:27:37.251Z,5.70
2019-02-19T23:30:06.546Z,5.70
2019-02-19T23:32:35.393Z,5.70
2019-02-19T23:35:32.256Z,5.70
2019-02-19T23:38:01.149Z,5.70
2019-02-19T23:40:29.978Z,5.70
2019-02-19T23:42:58.880Z,5.70
2019-02-19T23:45:27.793Z,5.70
2019-02-19T23:47:56.702Z,5.70
2019-02-19T23:50:25.629Z,5.70
2019-02-19T23:52:54.505Z,5.80
2019-02-19T23:55:24.488Z,5.80
2019-02-19T23:57:53.398Z,5.80
